Time;durP1;ratioP1;P1;durP2;ratioP2;P2;SDS_P1;SDS_P2;PMS_P1;PMS_P2;Temp;Humidity;BMP_temperature;BMP_pressure;BME280_temperature;BME280_humidity;BME280_pressure;Samples;Min_cycle;Max_cycle;Signal;HPM_P1;HPM_P2
2021/01/27 00:00:59;;;;;;;2.95;0.57;;;0.60;99.90;;;;;;5038613;28;20127;-65
2021/01/27 00:03:26;;;;;;;3.97;0.68;;;0.50;99.90;;;;;;5039525;28;20503;-67
2021/01/27 00:05:53;;;;;;;1.13;1.02;;;0.50;99.90;;;;;;5038756;28;20126;-67
2021/01/27 00:08:21;;;;;;;3.67;1.38;;;0.50;99.90;;;;;;5037168;28;20158;-67
2021/01/27 00:10:48;;;;;;;2.30;0.40;;;0.50;99.90;;;;;;5037046;28;20103;-67
2021/01/27 00:13:18;;;;;;;1.55;0.70;;;0.40;99.90;;;;;;5042154;28;20049;-65
2021/01/27 00:15:46;;;;;;;1.75;0.65;;;0.40;99.90;;;;;;5031044;28;20461;-66
2021/01/27 00:18:16;;;;;;;1.55;0.90;;;0.30;99.90;;;;;;5039271;28;20055;-65
2021/01/27 00:20:43;;;;;;;3.30;1.30;;;0.30;99.90;;;;;;5039198;28;20057;-68
2021/01/27 00:23:10;;;;;;;2.05;1.48;;;0.30;99.90;;;;;;5038814;28;20746;-67
2021/01/27 00:25:38;;;;;;;6.63;2.20;;;0.30;99.90;;;;;;5040100;28;20047;-69
2021/01/27 00:28:07;;;;;;;2.03;0.68;;;0.30;99.90;;;;;;5038386;28;20205;-65
2021/01/27 00:30:36;;;;;;;0.60;0.60;;;0.20;99.90;;;;;;5040046;28;20048;-71
2021/01/27 00:33:04;;;;;;;3.85;1.85;;;0.20;99.90;;;;;;5036613;28;20131;-67
2021/01/27 00:35:34;;;;;;;3.72;1.98;;;0.20;99.90;;;;;;5040242;28;20041;-64
2021/01/27 00:38:09;;;;;;;0.82;0.70;;;0.30;99.90;;;;;;5034166;28;21525;-65
2021/01/27 00:40:35;;;;;;;1.05;1.02;;;0.20;99.90;;;;;;5041587;28;20902;-67
2021/01/27 00:43:02;;;;;;;3.70;0.70;;;0.20;99.90;;;;;;5036354;28;20127;-66
2021/01/27 00:45:28;;;;;;;4.43;1.10;;;0.20;99.90;;;;;;5040265;28;20485;-67
2021/01/27 00:47:55;;;;;;;1.65;0.80;;;0.20;99.90;;;;;;5033669;28;20057;-67
2021/01/27 00:50:21;;;;;;;1.50;1.20;;;0.20;99.90;;;;;;5039515;28;20393;-66
2021/01/27 00:52:51;;;;;;;1.60;1.20;;;0.10;99.90;;;;;;5036440;28;20049;-70
2021/01/27 00:55:27;;;;;;;3.15;1.10;;;0.10;99.90;;;;;;5038069;28;20162;-66
2021/01/27 00:57:55;;;;;;;6.80;0.90;;;0.20;99.90;;;;;;5051047;28;20079;-70
2021/01/27 01:00:26;;;;;;;1.42;0.70;;;0.20;99.90;;;;;;5036809;28;20048;-67
2021/01/27 01:02:53;;;;;;;4.55;0.98;;;0.20;99.90;;;;;;5037728;28;20044;-64
2021/01/27 01:05:24;;;;;;;1.27;0.65;;;0.20;99.90;;;;;;5036241;28;20416;-70
2021/01/27 01:07:51;;;;;;;4.95;1.17;;;0.20;99.90;;;;;;5042345;28;20128;-70
2021/01/27 01:10:30;;;;;;;1.27;0.93;;;0.20;99.90;;;;;;5034482;28;20504;-66
2021/01/27 01:12:58;;;;;;;3.53;1.58;;;0.20;99.90;;;;;;5037731;28;20045;-67
2021/01/27 01:15:27;;;;;;;0.95;0.70;;;0.20;99.90;;;;;;5033278;28;20122;-69
2021/01/27 01:17:54;;;;;;;3.95;1.13;;;0.10;99.90;;;;;;5041844;28;20049;-66
2021/01/27 01:20:22;;;;;;;1.60;0.90;;;0.10;99.90;;;;;;5035002;28;20158;-66
2021/01/27 01:22:51;;;;;;;3.75;0.60;;;0.10;99.90;;;;;;5039156;28;20099;-64
2021/01/27 01:25:21;;;;;;;1.73;0.95;;;0.10;99.90;;;;;;5035110;28;20038;-69
2021/01/27 01:27:48;;;;;;;3.45;0.90;;;0.10;99.90;;;;;;5038646;28;20056;-69
2021/01/27 01:30:18;;;;;;;2.65;0.55;;;0.10;99.90;;;;;;5036022;28;20045;-67
2021/01/27 01:33:09;;;;;;;3.42;0.70;;;0.10;99.90;;;;;;5038766;28;20044;-68
2021/01/27 01:35:35;;;;;;;3.50;2.05;;;0.10;99.90;;;;;;5038723;28;20049;-65
2021/01/27 01:38:03;;;;;;;1.85;0.90;;;0.10;99.90;;;;;;5035793;28;20407;-64
2021/01/27 01:40:33;;;;;;;1.70;0.65;;;0.00;99.90;;;;;;5036931;28;20095;-68
2021/01/27 01:43:07;;;;;;;1.05;0.90;;;0.00;99.90;;;;;;5039303;28;20136;-70
2021/01/27 01:45:47;;;;;;;4.30;1.25;;;0.00;99.90;;;;;;5039621;28;20695;-67
2021/01/27 01:48:32;;;;;;;1.35;0.77;;;0.00;99.90;;;;;;5034839;28;20104;-70
2021/01/27 01:51:28;;;;;;;2.58;1.17;;;-0.10;99.90;;;;;;5038210;28;20118;-68
2021/01/27 01:53:58;;;;;;;3.60;1.83;;;-0.10;99.90;;;;;;5038481;28;20055;-66
2021/01/27 01:56:28;;;;;;;2.10;1.20;;;-0.10;99.90;;;;;;5038602;28;20073;-65
2021/01/27 01:58:55;;;;;;;;;;;-0.10;99.90;;;;;;5037936;28;20087;-65
2021/01/27 02:01:22;;;;;;;0.77;0.70;;;-0.10;99.90;;;;;;5040885;28;19943;-71
2021/01/27 02:03:51;;;;;;;4.90;0.90;;;-0.20;99.90;;;;;;5043538;28;20057;-65
2021/01/27 02:06:19;;;;;;;2.33;0.73;;;-0.10;99.90;;;;;;5041657;28;20067;-64
2021/01/27 02:08:50;;;;;;;1.52;0.70;;;-0.20;99.90;;;;;;5033905;28;20523;-71
2021/01/27 02:11:20;;;;;;;1.88;0.55;;;-0.20;99.90;;;;;;5041840;28;20140;-66
2021/01/27 02:14:11;;;;;;;1.17;0.80;;;-0.20;99.90;;;;;;5038464;28;20075;-67
2021/01/27 02:17:06;;;;;;;0.65;0.50;;;-0.20;99.90;;;;;;5033386;28;20076;-66
2021/01/27 02:20:04;;;;;;;3.22;0.85;;;-0.20;99.90;;;;;;5029464;28;20489;-65
2021/01/27 02:22:52;;;;;;;0.82;0.50;;;-0.30;99.90;;;;;;5028333;28;20045;-71
2021/01/27 02:25:43;;;;;;;2.78;0.85;;;-0.30;99.90;;;;;;5032829;28;20061;-65
2021/01/27 02:28:13;;;;;;;2.75;0.68;;;-0.30;99.90;;;;;;5043263;28;20045;-64
2021/01/27 02:30:46;;;;;;;5.90;0.80;;;-0.30;99.90;;;;;;5033259;28;20045;-65
2021/01/27 02:33:19;;;;;;;3.20;1.00;;;-0.20;99.90;;;;;;5039755;28;20384;-67
2021/01/27 02:35:51;;;;;;;2.28;0.85;;;-0.30;99.90;;;;;;5035233;28;20049;-69
2021/01/27 02:38:25;;;;;;;2.70;0.88;;;-0.20;99.90;;;;;;5037635;28;20132;-67
2021/01/27 02:41:03;;;;;;;1.50;0.73;;;-0.30;99.90;;;;;;5035289;28;20060;-64
2021/01/27 02:43:53;;;;;;;1.77;0.85;;;-0.20;99.90;;;;;;5040559;28;20052;-64
2021/01/27 02:46:32;;;;;;;2.42;0.63;;;-0.30;99.90;;;;;;5032454;28;20057;-70
2021/01/27 02:49:10;;;;;;;3.38;0.70;;;-0.30;99.90;;;;;;5039418;28;20072;-64
2021/01/27 02:51:59;;;;;;;1.95;0.95;;;-0.40;99.90;;;;;;5033272;28;20056;-64
2021/01/27 02:54:35;;;;;;;1.58;0.82;;;-0.40;99.90;;;;;;5037857;28;20610;-68
2021/01/27 02:57:12;;;;;;;2.67;0.50;;;-0.40;99.90;;;;;;5032986;28;20043;-66
2021/01/27 02:59:57;;;;;;;2.28;0.88;;;-0.40;99.90;;;;;;5039859;28;20065;-64
2021/01/27 03:02:45;;;;;;;1.73;0.88;;;-0.50;99.90;;;;;;5033787;28;20606;-69
2021/01/27 03:05:38;;;;;;;1.02;0.77;;;-0.50;99.90;;;;;;5037823;28;20384;-65
2021/01/27 03:08:16;;;;;;;2.45;1.02;;;-0.60;99.90;;;;;;5032441;28;20048;-67
2021/01/27 03:10:52;;;;;;;4.60;1.35;;;-0.60;99.90;;;;;;5038832;28;20059;-66
2021/01/27 03:13:19;;;;;;;3.53;2.13;;;-0.60;99.90;;;;;;5036068;28;20037;-64
2021/01/27 03:15:45;;;;;;;1.55;0.75;;;-0.60;99.90;;;;;;5038278;28;20083;-66
2021/01/27 03:18:24;;;;;;;1.48;0.70;;;-0.60;99.90;;;;;;5033462;28;20050;-69
2021/01/27 03:20:56;;;;;;;1.35;0.70;;;-0.60;99.90;;;;;;5030712;28;20056;-69
2021/01/27 03:23:43;;;;;;;2.67;0.80;;;-0.70;99.90;;;;;;5035747;28;20551;-67
2021/01/27 03:26:34;;;;;;;1.30;0.88;;;-0.70;99.90;;;;;;5035324;28;20500;-67
2021/01/27 03:29:42;;;;;;;3.53;0.60;;;-0.80;99.90;;;;;;5034290;28;20408;-66
2021/01/27 03:32:39;;;;;;;2.95;1.27;;;-0.80;99.90;;;;;;5044080;28;20053;-64
2021/01/27 03:35:18;;;;;;;1.23;1.05;;;-0.80;99.90;;;;;;5036460;28;20160;-66
2021/01/27 03:37:59;;;;;;;1.15;0.80;;;-0.80;99.90;;;;;;5039816;28;20202;-70
2021/01/27 03:40:27;;;;;;;;;;;-0.90;99.90;;;;;;5035907;28;20122;-65
2021/01/27 03:43:05;;;;;;;1.08;0.93;;;-0.90;99.90;;;;;;5044830;28;19982;-64
2021/01/27 03:45:36;;;;;;;2.85;1.10;;;-0.90;99.90;;;;;;5036082;28;20721;-65
2021/01/27 03:48:11;;;;;;;3.95;0.85;;;-0.90;99.90;;;;;;5043004;28;20136;-67
2021/01/27 03:50:40;;;;;;;1.85;1.00;;;-0.90;99.90;;;;;;5037488;28;20049;-65
2021/01/27 03:53:16;;;;;;;1.95;0.82;;;-0.90;99.90;;;;;;5036964;28;20048;-68
2021/01/27 03:56:14;;;;;;;2.33;0.75;;;-0.90;99.90;;;;;;5034791;28;20049;-64
2021/01/27 03:58:44;;;;;;;2.88;1.10;;;-0.80;99.90;;;;;;5040598;28;20064;-66
2021/01/27 04:01:17;;;;;;;2.47;0.90;;;-0.80;99.90;;;;;;5039023;28;20128;-64
2021/01/27 04:03:46;;;;;;;2.70;0.80;;;-0.80;99.90;;;;;;5043698;28;20139;-64
2021/01/27 04:06:12;;;;;;;2.08;1.15;;;-0.80;99.90;;;;;;5036674;28;21292;-64
2021/01/27 04:08:39;;;;;;;1.40;1.02;;;-0.70;99.90;;;;;;5041853;28;20049;-68
2021/01/27 04:11:06;;;;;;;1.38;1.27;;;-0.70;99.90;;;;;;5037819;28;20556;-64
2021/01/27 04:13:52;;;;;;;3.95;0.77;;;-0.70;99.90;;;;;;5040884;28;20052;-66
2021/01/27 04:16:20;;;;;;;1.80;1.10;;;-0.70;99.90;;;;;;5037323;28;20753;-65
2021/01/27 04:18:47;;;;;;;0.85;0.70;;;-0.70;99.90;;;;;;5039901;28;20072;-65
2021/01/27 04:21:14;;;;;;;1.73;0.85;;;-0.70;99.90;;;;;;5038711;28;20073;-68
2021/01/27 04:23:40;;;;;;;4.03;1.02;;;-0.70;99.90;;;;;;5038170;28;20049;-70
2021/01/27 04:26:07;;;;;;;0.95;0.70;;;-0.70;99.90;;;;;;5039546;28;20071;-64
2021/01/27 04:28:33;;;;;;;1.08;0.73;;;-0.70;99.90;;;;;;5033967;28;20111;-69
2021/01/27 04:30:59;;;;;;;6.70;0.90;;;-0.80;99.90;;;;;;5041003;28;20053;-64
2021/01/27 04:33:26;;;;;;;3.53;1.00;;;-0.80;99.90;;;;;;5035807;28;20571;-66
2021/01/27 04:35:53;;;;;;;3.45;0.82;;;-0.80;99.90;;;;;;5042167;28;20060;-66
2021/01/27 04:38:20;;;;;;;2.72;1.40;;;-0.80;99.90;;;;;;5033830;28;20069;-63
2021/01/27 04:40:52;;;;;;;1.58;0.77;;;-0.80;99.90;;;;;;5034239;28;20057;-65
2021/01/27 04:43:21;;;;;;;7.13;0.80;;;-0.80;99.90;;;;;;5036741;28;20037;-70
2021/01/27 04:45:58;;;;;;;3.08;0.88;;;-0.80;99.90;;;;;;5038653;28;20045;-64
2021/01/27 04:48:35;;;;;;;2.03;1.30;;;-0.70;99.90;;;;;;5035999;28;20041;-63
2021/01/27 04:51:04;;;;;;;1.77;1.25;;;-0.70;99.90;;;;;;5040270;28;20052;-65
2021/01/27 04:53:36;;;;;;;2.85;1.20;;;-0.70;99.90;;;;;;5037346;28;20126;-63
2021/01/27 04:56:43;;;;;;;11.75;3.05;;;-0.70;99.90;;;;;;5037582;28;20475;-64
2021/01/27 04:59:56;;;;;;;2.58;1.00;;;-0.70;99.90;;;;;;5027628;28;20079;-64
2021/01/27 05:02:54;;;;;;;2.20;1.00;;;-0.80;99.90;;;;;;5036630;28;20037;-64
2021/01/27 05:05:37;;;;;;;1.52;1.20;;;-0.80;99.90;;;;;;5035894;28;20044;-69
2021/01/27 05:08:25;;;;;;;3.78;1.02;;;-0.80;99.90;;;;;;5035872;28;20447;-66
2021/01/27 05:11:00;;;;;;;4.35;1.20;;;-0.80;99.90;;;;;;5034524;28;20056;-67
2021/01/27 05:13:39;;;;;;;2.25;1.23;;;-0.70;99.90;;;;;;5036492;28;20051;-64
2021/01/27 05:16:27;;;;;;;5.00;1.30;;;-0.70;99.90;;;;;;5033178;28;20048;-63
2021/01/27 05:18:57;;;;;;;2.30;1.13;;;-0.70;99.90;;;;;;5037361;28;20053;-66
2021/01/27 05:21:30;;;;;;;1.50;0.80;;;-0.70;99.90;;;;;;5034467;28;20052;-65
2021/01/27 05:23:59;;;;;;;11.45;1.50;;;-0.70;99.90;;;;;;5040145;28;20076;-66
2021/01/27 05:27:00;;;;;;;5.80;0.82;;;-0.70;99.90;;;;;;5036233;28;20080;-68
2021/01/27 05:29:36;;;;;;;3.78;2.50;;;-0.70;99.90;;;;;;5037923;28;20085;-67
2021/01/27 05:32:08;;;;;;;4.30;1.45;;;-0.70;99.90;;;;;;5036121;28;20071;-68
2021/01/27 05:34:44;;;;;;;4.78;1.00;;;-0.70;99.90;;;;;;5039063;28;20779;-64
2021/01/27 05:37:20;;;;;;;2.53;1.25;;;-0.70;99.90;;;;;;5035395;28;20045;-64
2021/01/27 05:39:49;;;;;;;1.65;1.55;;;-0.70;99.90;;;;;;5041230;28;20075;-68
2021/01/27 05:42:28;;;;;;;1.27;0.90;;;-0.80;99.90;;;;;;5036841;28;20048;-63
2021/01/27 05:44:58;;;;;;;4.70;1.08;;;-0.80;99.90;;;;;;5037965;28;20053;-66
2021/01/27 05:47:36;;;;;;;12.70;2.45;;;-0.70;99.90;;;;;;5038001;28;20109;-69
2021/01/27 05:50:30;;;;;;;8.90;1.83;;;-0.70;99.90;;;;;;5038036;28;20055;-64
2021/01/27 05:53:10;;;;;;;6.00;1.35;;;-0.70;99.90;;;;;;5029545;28;20037;-63
2021/01/27 05:55:54;;;;;;;3.05;1.00;;;-0.70;99.90;;;;;;5040153;28;20075;-66
2021/01/27 05:58:20;;;;;;;11.13;1.52;;;-0.70;99.90;;;;;;5035170;28;20254;-69
2021/01/27 06:00:47;;;;;;;2.03;1.20;;;-0.70;99.90;;;;;;5038987;28;20546;-65
2021/01/27 06:03:22;;;;;;;1.60;1.30;;;-0.70;99.90;;;;;;5032315;28;20056;-66
2021/01/27 06:05:50;;;;;;;2.13;1.92;;;-0.70;99.90;;;;;;5031339;28;20172;-65
2021/01/27 06:08:21;;;;;;;3.60;2.55;;;-0.70;99.90;;;;;;5034782;28;20069;-66
2021/01/27 06:10:50;;;;;;;5.10;1.02;;;-0.70;99.90;;;;;;5032461;28;20084;-64
2021/01/27 06:13:18;;;;;;;9.27;1.27;;;-0.70;99.90;;;;;;5035470;28;20405;-63
2021/01/27 06:15:46;;;;;;;9.98;1.30;;;-0.80;99.90;;;;;;5034289;28;20041;-68
2021/01/27 06:18:25;;;;;;;3.10;0.90;;;-0.70;99.90;;;;;;5033743;28;20445;-64
2021/01/27 06:21:08;;;;;;;3.13;0.93;;;-0.70;99.90;;;;;;5033933;28;20047;-65
2021/01/27 06:24:08;;;;;;;5.18;1.80;;;-0.80;99.90;;;;;;5038133;28;20053;-64
2021/01/27 06:26:58;;;;;;;1.98;0.75;;;-0.80;99.90;;;;;;5031042;28;20144;-63
2021/01/27 06:29:39;;;;;;;2.33;1.65;;;-0.80;99.90;;;;;;5031196;28;20041;-64
2021/01/27 06:32:31;;;;;;;4.60;1.30;;;-0.80;99.90;;;;;;5033914;28;20095;-65
2021/01/27 06:35:20;;;;;;;3.30;0.70;;;-0.80;99.90;;;;;;5036965;28;20377;-64
2021/01/27 06:37:52;;;;;;;7.53;2.88;;;-0.90;99.90;;;;;;5034998;28;20052;-64
2021/01/27 06:40:56;;;;;;;3.55;1.42;;;-0.80;99.90;;;;;;5038210;28;20049;-66
2021/01/27 06:43:32;;;;;;;3.13;1.23;;;-0.90;99.90;;;;;;5036613;28;20637;-65
2021/01/27 06:46:13;;;;;;;3.80;1.10;;;-0.90;99.90;;;;;;5036996;28;20487;-68
2021/01/27 06:48:56;;;;;;;1.35;0.88;;;-0.90;99.90;;;;;;5034957;28;20134;-66
2021/01/27 06:51:35;;;;;;;5.30;1.38;;;-0.90;99.90;;;;;;5038183;28;20087;-64
2021/01/27 06:54:04;;;;;;;2.67;1.02;;;-0.80;99.90;;;;;;5037574;28;20116;-63
2021/01/27 06:56:45;;;;;;;3.50;1.30;;;-0.90;99.90;;;;;;5036091;28;20064;-64
2021/01/27 06:59:27;;;;;;;6.22;0.90;;;-0.90;99.90;;;;;;5034833;28;20045;-63
2021/01/27 07:01:53;;;;;;;3.28;1.63;;;-0.80;99.90;;;;;;5038846;28;20441;-65
2021/01/27 07:04:39;;;;;;;1.92;1.35;;;-0.90;99.90;;;;;;5037060;28;20041;-66
2021/01/27 07:07:42;;;;;;;1.35;0.88;;;-0.90;99.90;;;;;;5036501;28;20114;-65
2021/01/27 07:10:24;;;;;;;3.47;0.98;;;-0.90;99.90;;;;;;5036148;28;20170;-63
2021/01/27 07:13:18;;;;;;;4.22;0.95;;;-0.90;99.90;;;;;;5035158;28;20063;-66
2021/01/27 07:15:48;;;;;;;6.05;1.40;;;-0.90;99.90;;;;;;5040962;28;20134;-68
2021/01/27 07:18:41;;;;;;;2.08;1.15;;;-0.90;99.90;;;;;;5039861;28;20610;-65
2021/01/27 07:21:25;;;;;;;2.95;1.08;;;-0.90;99.90;;;;;;5038163;28;20049;-65
2021/01/27 07:24:08;;;;;;;5.22;2.05;;;-1.00;99.90;;;;;;5038688;28;21350;-64
2021/01/27 07:26:41;;;;;;;4.05;1.30;;;-1.00;99.90;;;;;;5042143;28;20259;-65
2021/01/27 07:29:19;;;;;;;4.13;1.25;;;-0.90;99.90;;;;;;5038198;28;20052;-63
2021/01/27 07:31:59;;;;;;;2.20;0.75;;;-0.90;99.90;;;;;;5039136;28;20659;-63
2021/01/27 07:34:34;;;;;;;1.35;1.10;;;-0.80;99.90;;;;;;5034501;28;20040;-62
2021/01/27 07:37:12;;;;;;;3.13;1.05;;;-0.80;99.90;;;;;;5040463;28;20156;-67
2021/01/27 07:39:54;;;;;;;4.82;1.23;;;-0.90;99.90;;;;;;5041995;28;20511;-67
2021/01/27 07:42:39;;;;;;;7.55;1.10;;;-0.90;99.90;;;;;;5037729;28;20053;-63
2021/01/27 07:45:13;;;;;;;3.50;1.38;;;-0.90;99.90;;;;;;5038006;28;20523;-62
2021/01/27 07:48:17;;;;;;;2.13;1.40;;;-0.90;99.90;;;;;;5041196;28;20156;-64
2021/01/27 07:51:10;;;;;;;17.05;2.60;;;-0.90;99.90;;;;;;5035525;28;20053;-63
2021/01/27 07:53:48;;;;;;;1.92;1.00;;;-0.90;99.90;;;;;;5042772;28;20587;-65
2021/01/27 07:56:19;;;;;;;5.10;1.30;;;-0.90;99.90;;;;;;5036314;28;20790;-64
2021/01/27 07:59:14;;;;;;;3.60;1.55;;;-0.90;99.90;;;;;;5038133;28;20140;-64
2021/01/27 08:02:04;;;;;;;3.72;1.15;;;-0.90;99.90;;;;;;5037822;28;20155;-63
2021/01/27 08:04:49;;;;;;;2.10;1.38;;;-0.90;99.90;;;;;;5039523;28;20144;-64
2021/01/27 08:07:21;;;;;;;1.83;0.80;;;-0.90;99.90;;;;;;5039146;28;20838;-66
2021/01/27 08:09:49;;;;;;;1.05;0.75;;;-0.90;99.90;;;;;;5042367;28;20167;-64
2021/01/27 08:12:29;;;;;;;1.10;0.80;;;-0.90;99.90;;;;;;5034852;28;20041;-64
2021/01/27 08:15:25;;;;;;;2.58;1.10;;;-0.90;99.90;;;;;;5045099;28;20162;-68
2021/01/27 08:17:51;;;;;;;3.33;1.30;;;-0.80;99.90;;;;;;5036838;28;20045;-64
2021/01/27 08:20:31;;;;;;;3.03;0.90;;;-0.80;99.90;;;;;;5040260;28;20139;-65
2021/01/27 08:23:07;;;;;;;6.07;1.67;;;-0.90;99.90;;;;;;5033114;28;20110;-67
2021/01/27 08:25:59;;;;;;;1.88;1.02;;;-0.80;99.90;;;;;;5037929;28;20043;-63
2021/01/27 08:28:37;;;;;;;2.95;1.52;;;-0.80;99.90;;;;;;5035925;28;20044;-65
2021/01/27 08:31:10;;;;;;;1.75;0.40;;;-0.80;99.90;;;;;;5038725;28;20044;-63
2021/01/27 08:33:40;;;;;;;8.77;1.20;;;-0.80;99.90;;;;;;5035145;28;20041;-64
2021/01/27 08:36:09;;;;;;;1.73;1.05;;;-0.70;99.90;;;;;;5042525;28;20045;-64
2021/01/27 08:38:40;;;;;;;2.40;0.95;;;-0.80;99.90;;;;;;5034464;28;20102;-63
2021/01/27 08:41:31;;;;;;;1.75;0.77;;;-0.70;99.90;;;;;;5038877;28;20131;-68
2021/01/27 08:44:00;;;;;;;2.95;0.63;;;-0.70;99.90;;;;;;5035292;28;20067;-64
2021/01/27 08:46:31;;;;;;;2.85;0.88;;;-0.70;99.90;;;;;;5042644;28;20049;-64
2021/01/27 08:48:59;;;;;;;0.90;0.80;;;-0.70;99.90;;;;;;5038753;28;20614;-64
2021/01/27 08:51:50;;;;;;;5.10;1.17;;;-0.70;99.90;;;;;;5036797;28;20065;-67
2021/01/27 08:54:35;;;;;;;2.45;1.08;;;-0.70;99.90;;;;;;5033243;28;20060;-63
2021/01/27 08:57:23;;;;;;;2.88;0.80;;;-0.70;99.90;;;;;;5037897;28;20539;-66
2021/01/27 09:00:33;;;;;;;1.40;0.77;;;-0.60;99.90;;;;;;5036306;28;20049;-65
2021/01/27 09:03:02;;;;;;;9.88;1.17;;;-0.60;99.90;;;;;;5032615;28;20127;-65
2021/01/27 09:05:29;;;;;;;0.60;0.50;;;-0.70;99.90;;;;;;5038750;28;20129;-63
2021/01/27 09:08:24;;;;;;;0.90;0.52;;;-0.60;99.90;;;;;;5036715;28;20072;-65
2021/01/27 09:10:58;;;;;;;9.05;1.23;;;-0.60;99.90;;;;;;5039707;28;20203;-63
2021/01/27 09:13:34;;;;;;;4.15;2.05;;;-0.60;99.90;;;;;;5040692;28;20373;-67
2021/01/27 09:16:16;;;;;;;7.15;1.15;;;-0.60;99.90;;;;;;5038786;28;20081;-66
2021/01/27 09:19:21;;;;;;;2.10;0.93;;;-0.60;99.90;;;;;;5038661;28;20515;-66
2021/01/27 09:22:17;;;;;;;3.72;1.20;;;-0.50;99.90;;;;;;5039362;28;20111;-66
2021/01/27 09:24:47;;;;;;;3.65;0.82;;;-0.60;99.90;;;;;;5032201;28;20041;-62
2021/01/27 09:27:31;;;;;;;3.35;0.75;;;-0.50;99.90;;;;;;5038584;28;20500;-64
2021/01/27 09:30:10;;;;;;;0.70;0.50;;;-0.50;99.90;;;;;;5034749;28;20049;-68
2021/01/27 09:32:39;;;;;;;1.80;1.27;;;-0.50;99.90;;;;;;5037591;28;20049;-64
2021/01/27 09:35:10;;;;;;;6.38;1.00;;;-0.50;99.90;;;;;;5034056;28;20045;-65
2021/01/27 09:37:51;;;;;;;1.60;0.77;;;-0.50;99.90;;;;;;5038391;28;20547;-64
2021/01/27 09:40:26;;;;;;;4.57;0.98;;;-0.50;99.90;;;;;;5035660;28;20120;-64
2021/01/27 09:43:02;;;;;;;2.10;0.80;;;-0.50;99.90;;;;;;5038543;28;20724;-64
2021/01/27 09:45:31;;;;;;;8.05;1.95;;;-0.50;99.90;;;;;;5038641;28;20049;-62
2021/01/27 09:48:00;;;;;;;8.20;2.30;;;-0.50;99.90;;;;;;5036827;28;20471;-64
2021/01/27 09:50:28;;;;;;;2.65;0.70;;;-0.50;99.90;;;;;;5028399;28;20103;-66
2021/01/27 09:52:57;;;;;;;6.13;0.80;;;-0.50;99.90;;;;;;5038088;28;20129;-63
2021/01/27 09:55:26;;;;;;;1.98;0.77;;;-0.50;99.90;;;;;;5036627;28;20846;-63
2021/01/27 09:57:54;;;;;;;2.10;0.60;;;-0.50;99.90;;;;;;5034232;28;20064;-64
2021/01/27 10:00:28;;;;;;;1.88;1.40;;;-0.40;99.90;;;;;;5038943;28;20048;-62
2021/01/27 10:02:55;;;;;;;3.05;0.55;;;-0.40;99.90;;;;;;5036617;28;20781;-65
2021/01/27 10:05:32;;;;;;;2.20;1.10;;;-0.40;99.90;;;;;;5041400;28;20044;-68
2021/01/27 10:07:59;;;;;;;1.33;0.70;;;-0.40;99.90;;;;;;5035573;28;20049;-63
2021/01/27 10:10:26;;;;;;;1.05;0.50;;;-0.40;99.90;;;;;;5040199;28;20528;-63
2021/01/27 10:12:57;;;;;;;2.15;0.82;;;-0.40;99.90;;;;;;5031418;28;20045;-65
2021/01/27 10:15:31;;;;;;;2.63;0.77;;;-0.50;99.90;;;;;;5037922;28;20408;-64
2021/01/27 10:18:17;;;;;;;0.90;0.68;;;-0.50;99.90;;;;;;5032102;28;20059;-66
2021/01/27 10:20:44;;;;;;;1.77;1.02;;;-0.50;99.90;;;;;;5034232;28;20037;-68
2021/01/27 10:23:14;;;;;;;7.18;1.02;;;-0.50;99.90;;;;;;5029468;28;20812;-63
2021/01/27 10:25:44;;;;;;;13.43;1.60;;;-0.40;99.90;;;;;;5037766;28;20053;-64
2021/01/27 10:28:22;;;;;;;3.75;1.00;;;-0.40;99.90;;;;;;5035996;28;20136;-66
2021/01/27 10:30:59;;;;;;;0.68;0.63;;;-0.40;99.90;;;;;;5034238;28;20059;-65
2021/01/27 10:33:48;;;;;;;2.53;0.82;;;-0.40;99.90;;;;;;5035522;28;20045;-63
2021/01/27 10:36:31;;;;;;;2.38;0.75;;;-0.50;99.90;;;;;;5038800;28;20142;-62
2021/01/27 10:39:14;;;;;;;2.30;0.85;;;-0.40;99.90;;;;;;5036858;28;20747;-64
2021/01/27 10:41:41;;;;;;;5.72;0.88;;;-0.50;99.90;;;;;;5042647;28;20041;-64
2021/01/27 10:44:39;;;;;;;8.18;0.85;;;-0.50;99.90;;;;;;5035225;28;20144;-62
2021/01/27 10:47:08;;;;;;;5.93;1.27;;;-0.50;99.90;;;;;;5036607;28;20198;-65
2021/01/27 10:49:41;;;;;;;1.83;1.03;;;-0.50;99.90;;;;;;5038405;28;20053;-62
2021/01/27 10:52:15;;;;;;;8.52;0.93;;;-0.60;99.90;;;;;;5039427;28;20060;-62
2021/01/27 10:54:42;;;;;;;5.43;1.48;;;-0.50;99.90;;;;;;5038270;28;20037;-65
2021/01/27 10:57:09;;;;;;;4.40;0.95;;;-0.50;99.90;;;;;;5039668;28;21291;-63
2021/01/27 10:59:35;;;;;;;2.53;0.70;;;-0.60;99.90;;;;;;5040160;28;20045;-69
2021/01/27 11:02:02;;;;;;;3.15;1.45;;;-0.50;99.90;;;;;;5039791;28;20671;-65
2021/01/27 11:04:28;;;;;;;4.65;1.20;;;-0.60;99.90;;;;;;5041092;28;20734;-63
2021/01/27 11:07:15;;;;;;;5.05;0.85;;;-0.60;99.90;;;;;;5036336;28;20393;-66
2021/01/27 11:09:41;;;;;;;6.97;1.42;;;-0.60;99.90;;;;;;5042362;28;20476;-63
2021/01/27 11:12:08;;;;;;;9.73;1.38;;;-0.50;99.90;;;;;;5038684;28;20086;-65
2021/01/27 11:14:35;;;;;;;1.70;1.23;;;-0.50;99.90;;;;;;5036023;28;20041;-64
2021/01/27 11:17:01;;;;;;;4.82;1.40;;;-0.60;99.90;;;;;;5038640;28;20037;-66
2021/01/27 11:19:28;;;;;;;4.38;2.15;;;-0.50;99.90;;;;;;5041490;28;20048;-66
2021/01/27 11:21:54;;;;;;;5.20;0.82;;;-0.50;99.90;;;;;;5035375;28;20052;-65
2021/01/27 11:24:21;;;;;;;5.90;1.08;;;-0.40;99.90;;;;;;5032358;28;20473;-63
2021/01/27 11:26:47;;;;;;;1.98;1.15;;;-0.50;99.90;;;;;;5037919;28;20644;-67
2021/01/27 11:29:14;;;;;;;2.47;0.93;;;-0.50;99.90;;;;;;5032699;28;20044;-63
2021/01/27 11:31:41;;;;;;;2.47;1.48;;;-0.50;99.90;;;;;;5033445;28;20132;-64
2021/01/27 11:34:08;;;;;;;4.28;1.25;;;-0.50;99.90;;;;;;5035401;28;20051;-67
2021/01/27 11:36:34;;;;;;;1.40;0.60;;;-0.50;99.90;;;;;;5035701;28;20045;-63
2021/01/27 11:39:01;;;;;;;6.03;1.10;;;-0.50;99.90;;;;;;5029677;28;20041;-64
2021/01/27 11:41:27;;;;;;;2.78;0.68;;;-0.50;99.90;;;;;;5035113;28;20780;-65
2021/01/27 11:43:54;;;;;;;0.88;0.55;;;-0.40;99.90;;;;;;5030934;28;20029;-63
2021/01/27 11:46:21;;;;;;;4.00;1.08;;;-0.50;99.90;;;;;;5037364;28;20055;-66
2021/01/27 11:48:47;;;;;;;1.65;1.17;;;-0.50;99.90;;;;;;5037319;28;20048;-65
2021/01/27 11:51:15;;;;;;;3.97;1.77;;;-0.40;99.90;;;;;;5036596;28;20120;-64
2021/01/27 11:53:42;;;;;;;9.40;0.98;;;-0.40;99.90;;;;;;5039397;28;20131;-65
2021/01/27 11:56:12;;;;;;;3.00;1.00;;;-0.40;99.90;;;;;;5036297;28;20048;-64
2021/01/27 11:58:39;;;;;;;2.60;0.63;;;-0.30;99.90;;;;;;5037977;28;20061;-65
2021/01/27 12:01:05;;;;;;;9.13;0.90;;;-0.30;99.90;;;;;;5037086;28;20045;-65
2021/01/27 12:03:32;;;;;;;2.40;0.90;;;-0.30;99.90;;;;;;5037882;28;20045;-67
2021/01/27 12:05:59;;;;;;;5.40;2.67;;;-0.30;99.90;;;;;;5039997;28;20136;-67
2021/01/27 12:08:26;;;;;;;3.58;0.88;;;-0.40;99.90;;;;;;5036244;28;20167;-65
2021/01/27 12:10:52;;;;;;;1.58;0.80;;;-0.40;99.90;;;;;;5039817;28;20041;-65
2021/01/27 12:13:19;;;;;;;5.90;1.25;;;-0.30;99.90;;;;;;5034197;28;20487;-63
2021/01/27 12:15:50;;;;;;;3.80;0.60;;;-0.30;99.90;;;;;;5037890;28;20056;-65
2021/01/27 12:18:18;;;;;;;3.95;0.60;;;-0.30;99.90;;;;;;5036576;28;20511;-65
2021/01/27 12:20:46;;;;;;;1.98;0.93;;;-0.30;99.90;;;;;;5036802;28;20041;-64
2021/01/27 12:23:13;;;;;;;3.70;0.70;;;-0.30;99.90;;;;;;5038484;28;21336;-63
2021/01/27 12:25:40;;;;;;;0.60;0.40;;;-0.20;99.90;;;;;;5039530;28;20067;-65
2021/01/27 12:28:07;;;;;;;2.00;0.80;;;-0.30;99.90;;;;;;5039353;28;20052;-64
2021/01/27 12:30:34;;;;;;;9.52;0.95;;;-0.30;99.90;;;;;;5037909;28;20057;-63
2021/01/27 12:33:01;;;;;;;4.43;1.08;;;-0.20;99.90;;;;;;5039439;28;20052;-64
2021/01/27 12:35:27;;;;;;;2.45;0.60;;;-0.30;99.90;;;;;;5036360;28;20060;-67
2021/01/27 12:37:54;;;;;;;4.13;0.60;;;-0.20;99.90;;;;;;5037682;28;20045;-65
2021/01/27 12:40:22;;;;;;;7.85;1.30;;;-0.20;99.90;;;;;;5035933;28;20122;-63
2021/01/27 12:42:50;;;;;;;6.60;0.57;;;-0.20;99.90;;;;;;5037494;28;20103;-63
2021/01/27 12:45:18;;;;;;;1.52;0.75;;;-0.20;99.90;;;;;;5038434;28;20084;-64
2021/01/27 12:47:45;;;;;;;5.72;0.85;;;-0.20;99.90;;;;;;5037788;28;20087;-65
2021/01/27 12:50:12;;;;;;;2.22;0.70;;;-0.20;99.90;;;;;;5035845;28;20053;-64
2021/01/27 12:52:39;;;;;;;1.98;0.77;;;-0.10;99.90;;;;;;5037553;28;20095;-64
2021/01/27 12:55:10;;;;;;;1.98;0.40;;;-0.10;99.90;;;;;;5039332;28;20446;-65
2021/01/27 12:57:42;;;;;;;3.90;0.88;;;-0.10;99.90;;;;;;5035207;28;20068;-66
2021/01/27 13:00:12;;;;;;;9.00;1.23;;;-0.10;99.90;;;;;;5041564;28;20566;-66
2021/01/27 13:02:40;;;;;;;4.63;0.68;;;0.00;99.90;;;;;;5034084;28;20057;-68
2021/01/27 13:05:07;;;;;;;8.32;1.08;;;-0.10;99.90;;;;;;5037822;28;20708;-63
2021/01/27 13:07:33;;;;;;;4.28;0.70;;;-0.10;99.90;;;;;;5036528;28;20041;-69
2021/01/27 13:10:00;;;;;;;2.45;0.82;;;-0.10;99.90;;;;;;5037470;28;20076;-68
2021/01/27 13:12:26;;;;;;;2.42;0.90;;;-0.10;99.90;;;;;;5031442;28;20049;-64
2021/01/27 13:14:53;;;;;;;4.65;0.93;;;-0.10;99.90;;;;;;5034236;28;20136;-65
2021/01/27 13:17:40;;;;;;;7.65;1.02;;;-0.10;99.90;;;;;;5037842;28;20052;-64
2021/01/27 13:20:09;;;;;;;1.48;0.50;;;0.00;99.90;;;;;;5038004;28;20051;-63
2021/01/27 13:22:36;;;;;;;0.93;0.57;;;-0.10;99.90;;;;;;5032425;28;21069;-69
2021/01/27 13:25:03;;;;;;;2.65;1.63;;;-0.10;99.90;;;;;;5035181;28;20069;-64
2021/01/27 13:27:30;;;;;;;1.13;0.68;;;-0.10;99.90;;;;;;5039846;28;20049;-65